createdAt,value
2023-03-28T00:02:06.783Z,1.35
2023-03-28T00:04:34.632Z,1.70
2023-03-28T00:07:02.517Z,1.75
2023-03-28T00:09:31.558Z,1.77
2023-03-28T00:11:59.324Z,1.85
2023-03-28T00:14:27.485Z,1.90
2023-03-28T00:16:55.087Z,1.52
2023-03-28T00:19:22.737Z,1.70
2023-03-28T00:21:51.303Z,1.67
2023-03-28T00:24:21.558Z,1.60
2023-03-28T00:26:55.477Z,1.73
2023-03-28T00:29:26.048Z,1.77
2023-03-28T00:31:53.905Z,1.50
2023-03-28T00:34:21.756Z,1.83
2023-03-28T00:36:50.783Z,1.38
2023-03-28T00:39:18.874Z,1.70
2023-03-28T00:41:46.875Z,1.25
2023-03-28T00:44:54.510Z,1.70
2023-03-28T00:47:28.189Z,1.20
2023-03-28T00:50:05.373Z,1.38
2023-03-28T00:52:43.925Z,1.58
2023-03-28T00:55:31.125Z,1.30
2023-03-28T00:57:59.783Z,1.30
2023-03-28T01:00:30.924Z,1.40
2023-03-28T01:03:02.586Z,1.70
2023-03-28T01:05:34.079Z,1.90
2023-03-28T01:08:28.290Z,2.10
2023-03-28T01:10:56.399Z,2.78
2023-03-28T01:13:29.862Z,2.85
2023-03-28T01:16:02.667Z,2.65
2023-03-28T01:18:37.396Z,2.03
2023-03-28T01:21:05.867Z,2.10
2023-03-28T01:24:13.428Z,2.15
2023-03-28T01:26:50.890Z,1.90
2023-03-28T01:29:38.492Z,2.00
2023-03-28T01:32:51.483Z,2.13
2023-03-28T01:36:01.348Z,2.10
2023-03-28T01:38:59.457Z,2.17
2023-03-28T01:41:41.995Z,2.08
2023-03-28T01:44:48.727Z,2.35
2023-03-28T01:47:47.180Z,2.22
2023-03-28T01:50:30.989Z,2.00
2023-03-28T01:53:14.410Z,2.63
2023-03-28T01:56:01.794Z,2.30
2023-03-28T01:58:41.853Z,1.95
2023-03-28T02:01:36.882Z,2.15
2023-03-28T02:04:21.432Z,2.05
2023-03-28T02:06:57.414Z,2.00
2023-03-28T02:09:33.003Z,2.20
2023-03-28T02:12:25.062Z,1.95
2023-03-28T02:15:15.771Z,2.03
2023-03-28T02:18:23.639Z,2.35
2023-03-28T02:21:08.857Z,1.95
2023-03-28T02:23:59.424Z,2.20
2023-03-28T02:26:55.230Z,1.88
2023-03-28T02:29:39.172Z,2.53
2023-03-28T02:32:17.731Z,2.17
2023-03-28T02:34:48.875Z,2.13
2023-03-28T02:37:31.610Z,2.10
2023-03-28T02:40:17.131Z,2.10
2023-03-28T02:43:21.234Z,3.63
2023-03-28T02:46:32.330Z,4.00
2023-03-28T02:49:25.269Z,3.28
2023-03-28T02:52:09.582Z,3.30
2023-03-28T02:55:19.416Z,2.80
2023-03-28T02:58:26.456Z,2.58
2023-03-28T03:00:54.378Z,2.70
2023-03-28T03:03:23.643Z,2.70
2023-03-28T03:05:51.657Z,2.83
2023-03-28T03:08:19.550Z,2.78
2023-03-28T03:10:47.788Z,3.25
2023-03-28T03:13:17.936Z,3.17
2023-03-28T03:15:46.546Z,3.65
2023-03-28T03:18:26.397Z,3.20
2023-03-28T03:20:54.799Z,3.03
2023-03-28T03:23:22.849Z,3.10
2023-03-28T03:25:54.962Z,3.53
2023-03-28T03:28:44.467Z,4.53
2023-03-28T03:31:12.459Z,5.47
2023-03-28T03:33:53.079Z,4.40
2023-03-28T03:36:27.217Z,3.75
2023-03-28T03:38:55.291Z,3.15
2023-03-28T03:41:24.484Z,3.30
2023-03-28T03:43:52.593Z,2.90
2023-03-28T03:46:20.766Z,2.80
2023-03-28T03:48:50.692Z,3.03
2023-03-28T03:51:19.225Z,4.22
2023-03-28T03:53:50.717Z,6.10
2023-03-28T03:56:21.368Z,4.00
2023-03-28T03:58:54.744Z,3.58
2023-03-28T04:01:30.064Z,3.20
2023-03-28T04:04:13.140Z,2.90
2023-03-28T04:09:32.754Z,2.75
2023-03-28T04:14:44.709Z,2.70
2023-03-28T04:17:35.776Z,3.00
2023-03-28T04:20:13.975Z,2.95
2023-03-28T04:23:04.263Z,3.10
2023-03-28T04:25:32.300Z,3.20
2023-03-28T04:28:10.576Z,3.15
2023-03-28T04:30:59.884Z,3.33
2023-03-28T04:33:53.842Z,3.70
2023-03-28T04:36:25.614Z,4.55
2023-03-28T04:39:02.624Z,4.28
2023-03-28T04:42:02.086Z,5.07
2023-03-28T04:44:49.135Z,4.72
2023-03-28T04:47:18.669Z,4.10
2023-03-28T04:49:48.711Z,4.30
2023-03-28T04:52:16.924Z,4.72
2023-03-28T04:54:47.522Z,5.32
2023-03-28T04:57:18.044Z,5.30
2023-03-28T04:59:49.656Z,4.40
2023-03-28T05:02:38.789Z,3.63
2023-03-28T05:05:10.235Z,3.78
2023-03-28T05:07:38.146Z,3.83
2023-03-28T05:10:08.447Z,3.80
2023-03-28T05:12:40.288Z,3.97
2023-03-28T05:15:11.345Z,4.40
2023-03-28T05:18:06.840Z,3.90
2023-03-28T05:20:39.361Z,3.10
2023-03-28T05:23:09.672Z,4.20
2023-03-28T05:25:40.532Z,4.10
2023-03-28T05:28:11.161Z,4.40
2023-03-28T05:30:48.740Z,4.05
2023-03-28T05:33:17.659Z,4.28
2023-03-28T05:35:47.091Z,3.70
2023-03-28T05:38:16.355Z,3.30
2023-03-28T05:40:53.978Z,3.55
2023-03-28T05:43:21.866Z,4.05
2023-03-28T05:45:50.028Z,3.65
2023-03-28T05:48:42.984Z,3.85
2023-03-28T05:51:20.884Z,4.55
2023-03-28T05:53:49.358Z,5.00
2023-03-28T05:56:17.277Z,5.82
2023-03-28T05:58:44.877Z,6.65
2023-03-28T06:01:14.557Z,7.15
2023-03-28T06:03:43.123Z,7.28
2023-03-28T06:06:11.525Z,7.18
2023-03-28T06:08:42.430Z,7.50
2023-03-28T06:11:13.891Z,6.32
2023-03-28T06:14:06.587Z,5.43
2023-03-28T06:16:35.820Z,4.95
2023-03-28T06:19:17.222Z,4.95
2023-03-28T06:21:50.492Z,4.93
2023-03-28T06:24:18.279Z,4.40
2023-03-28T06:26:47.138Z,4.78
2023-03-28T06:29:19.544Z,4.95
2023-03-28T06:31:49.512Z,4.40
2023-03-28T06:34:17.516Z,3.95
2023-03-28T06:36:59.555Z,4.55
2023-03-28T06:39:42.564Z,4.55
2023-03-28T06:42:10.762Z,4.90
2023-03-28T06:44:49.254Z,4.15
2023-03-28T06:47:37.776Z,4.25
2023-03-28T06:50:07.836Z,4.28
2023-03-28T06:52:55.375Z,4.78
2023-03-28T06:55:25.968Z,4.30
2023-03-28T06:57:54.125Z,3.65
2023-03-28T07:00:31.369Z,3.55
2023-03-28T07:03:19.638Z,3.53
2023-03-28T07:05:47.569Z,3.65
2023-03-28T07:08:19.215Z,3.83
2023-03-28T07:10:47.865Z,3.97
2023-03-28T07:13:15.761Z,3.40
2023-03-28T07:16:11.937Z,3.40
2023-03-28T07:18:41.290Z,3.50
2023-03-28T07:21:17.717Z,3.80
2023-03-28T07:23:45.840Z,3.95
2023-03-28T07:26:19.457Z,3.80
2023-03-28T07:28:47.183Z,3.53
2023-03-28T07:31:15.746Z,3.33
2023-03-28T07:33:44.703Z,3.80
2023-03-28T07:36:22.291Z,3.60
2023-03-28T07:38:59.614Z,3.58
2023-03-28T07:41:27.462Z,3.50
2023-03-28T07:43:55.234Z,3.60
2023-03-28T07:46:25.839Z,3.90
2023-03-28T07:48:55.615Z,3.17
2023-03-28T07:51:24.286Z,3.10
2023-03-28T07:53:54.099Z,3.47
2023-03-28T07:56:21.968Z,3.20
2023-03-28T07:59:22.763Z,2.53
2023-03-28T08:01:54.201Z,2.30
2023-03-28T08:04:23.475Z,2.08
2023-03-28T08:07:02.227Z,1.77
2023-03-28T08:09:31.456Z,2.13
2023-03-28T08:12:08.346Z,1.60
2023-03-28T08:14:37.874Z,1.50
2023-03-28T08:17:06.285Z,1.40
2023-03-28T08:19:35.884Z,1.27
2023-03-28T08:22:26.016Z,1.42
2023-03-28T08:25:12.566Z,1.90
2023-03-28T08:27:42.665Z,2.15
2023-03-28T08:30:14.575Z,1.90
2023-03-28T08:32:51.689Z,1.42
2023-03-28T08:35:20.986Z,1.70
2023-03-28T08:37:53.024Z,1.80
2023-03-28T08:40:25.488Z,1.48
2023-03-28T08:43:09.086Z,1.33
2023-03-28T08:45:46.018Z,1.43
2023-03-28T08:48:23.443Z,1.63
2023-03-28T08:51:06.048Z,1.65
2023-03-28T08:53:44.041Z,2.00
2023-03-28T08:56:16.347Z,1.83
2023-03-28T08:58:58.632Z,1.85
2023-03-28T09:01:32.683Z,1.60
2023-03-28T09:04:05.763Z,1.55
2023-03-28T09:06:45.381Z,1.70
2023-03-28T09:10:18.928Z,1.60
2023-03-28T09:12:58.285Z,1.30
2023-03-28T09:15:40.444Z,1.70
2023-03-28T09:18:54.792Z,1.60
2023-03-28T09:22:02.193Z,1.25
2023-03-28T09:25:15.307Z,1.17
2023-03-28T09:28:31.710Z,1.50
2023-03-28T09:31:00.704Z,1.10
2023-03-28T09:33:38.072Z,1.45
2023-03-28T09:36:31.839Z,2.03
2023-03-28T09:39:27.082Z,1.77
2023-03-28T09:42:24.076Z,1.55
2023-03-28T09:45:36.209Z,1.50
2023-03-28T09:48:28.557Z,1.40
2023-03-28T09:50:59.151Z,1.20
2023-03-28T09:53:32.913Z,1.50
2023-03-28T09:56:28.797Z,1.58
2023-03-28T09:59:28.534Z,1.70
2023-03-28T10:02:05.644Z,1.33
2023-03-28T10:04:39.478Z,1.40
2023-03-28T10:07:43.780Z,1.40
2023-03-28T10:10:25.024Z,1.90
2023-03-28T10:13:05.183Z,1.52
2023-03-28T10:15:48.151Z,1.38
2023-03-28T10:18:56.492Z,1.42
2023-03-28T10:21:35.081Z,1.30
2023-03-28T10:24:20.098Z,1.00
2023-03-28T10:27:01.439Z,1.38
2023-03-28T10:29:53.540Z,1.10
2023-03-28T10:32:43.420Z,1.02
2023-03-28T10:35:30.894Z,0.95
2023-03-28T10:38:18.803Z,1.20
2023-03-28T10:44:19.850Z,1.10
2023-03-28T10:47:12.700Z,1.13
2023-03-28T10:49:55.719Z,1.10
2023-03-28T10:52:25.941Z,1.30
2023-03-28T10:55:25.807Z,1.88
2023-03-28T10:58:41.370Z,1.23
2023-03-28T11:01:23.280Z,1.30
2023-03-28T11:04:16.443Z,1.05
2023-03-28T11:06:59.282Z,1.20
2023-03-28T11:10:23.009Z,1.27
2023-03-28T11:13:31.369Z,1.17
2023-03-28T11:16:13.128Z,1.00
2023-03-28T11:19:36.573Z,0.88
2023-03-28T11:22:47.547Z,1.13
2023-03-28T11:25:29.269Z,1.80
2023-03-28T11:28:27.912Z,1.17
2023-03-28T11:31:05.858Z,1.42
2023-03-28T11:33:57.553Z,1.10
2023-03-28T11:36:34.226Z,1.05
2023-03-28T11:39:33.006Z,1.20
2023-03-28T11:42:08.919Z,1.20
2023-03-28T11:45:11.773Z,1.27
2023-03-28T11:48:05.383Z,1.27
2023-03-28T11:51:03.450Z,0.90
2023-03-28T11:53:57.377Z,0.90
2023-03-28T11:56:57.782Z,0.93
2023-03-28T11:59:59.566Z,1.00
2023-03-28T12:02:42.704Z,1.10
2023-03-28T12:05:39.372Z,1.10
2023-03-28T12:08:28.127Z,1.02
2023-03-28T12:11:24.109Z,1.70
2023-03-28T12:14:26.746Z,1.42
2023-03-28T12:16:59.186Z,1.25
2023-03-28T12:19:44.359Z,1.27
2023-03-28T12:22:33.019Z,1.15
2023-03-28T12:25:28.520Z,1.27
2023-03-28T12:28:37.121Z,1.50
2023-03-28T12:31:22.068Z,1.10
2023-03-28T12:34:06.674Z,1.15
2023-03-28T12:37:22.399Z,1.13
2023-03-28T12:42:46.558Z,1.40
2023-03-28T12:45:53.217Z,1.50
2023-03-28T12:48:49.771Z,1.05
2023-03-28T12:51:33.714Z,1.20
2023-03-28T12:54:26.387Z,1.30
2023-03-28T12:57:07.316Z,1.38
2023-03-28T13:00:16.479Z,1.40
2023-03-28T13:03:41.248Z,1.45
2023-03-28T13:06:42.476Z,1.58
2023-03-28T13:09:49.339Z,1.10
2023-03-28T13:12:23.312Z,1.30
2023-03-28T13:15:27.496Z,1.30
2023-03-28T13:18:20.272Z,1.50
2023-03-28T13:20:52.202Z,1.40
2023-03-28T13:23:35.750Z,1.50
2023-03-28T13:26:06.632Z,2.15
2023-03-28T13:28:50.468Z,1.50
2023-03-28T13:31:18.325Z,1.40
2023-03-28T13:34:02.476Z,1.20
2023-03-28T13:36:35.411Z,1.25
2023-03-28T13:39:05.734Z,1.30
2023-03-28T13:41:35.757Z,1.35
2023-03-28T13:44:38.866Z,1.27
2023-03-28T13:47:11.308Z,1.27
2023-03-28T13:50:02.602Z,1.20
2023-03-28T13:52:30.921Z,1.13
2023-03-28T13:55:14.616Z,1.20
2023-03-28T13:57:42.565Z,1.15
2023-03-28T14:00:16.866Z,1.60
2023-03-28T14:02:53.645Z,1.38
2023-03-28T14:05:23.019Z,1.30
2023-03-28T14:07:53.778Z,1.20
2023-03-28T14:10:40.530Z,1.17
2023-03-28T14:13:20.306Z,1.38
2023-03-28T14:15:51.701Z,1.30
2023-03-28T14:18:32.502Z,1.63
2023-03-28T14:21:01.400Z,1.30
2023-03-28T14:23:35.440Z,1.25
2023-03-28T14:26:16.630Z,1.10
2023-03-28T14:28:46.742Z,1.38
2023-03-28T14:31:35.398Z,1.27
2023-03-28T14:34:18.639Z,1.20
2023-03-28T14:36:59.504Z,1.60
2023-03-28T14:39:37.145Z,1.10
2023-03-28T14:42:08.472Z,1.30
2023-03-28T14:44:44.591Z,1.30
2023-03-28T14:47:32.763Z,1.30
2023-03-28T14:50:02.001Z,1.27
2023-03-28T14:52:40.889Z,1.40
2023-03-28T14:55:15.551Z,0.95
2023-03-28T14:57:49.320Z,1.60
2023-03-28T15:00:22.914Z,1.40
2023-03-28T15:02:53.013Z,1.20
2023-03-28T15:05:23.039Z,1.40
2023-03-28T15:08:02.040Z,1.23
2023-03-28T15:10:32.256Z,1.10
2023-03-28T15:13:06.366Z,1.40
2023-03-28T15:15:44.234Z,1.20
2023-03-28T15:18:17.562Z,1.27
2023-03-28T15:20:52.141Z,1.30
2023-03-28T15:23:34.909Z,1.40
2023-03-28T15:26:09.460Z,1.48
2023-03-28T15:28:37.542Z,1.58
2023-03-28T15:31:09.538Z,1.25
2023-03-28T15:33:39.826Z,1.10
2023-03-28T15:36:17.830Z,1.05
2023-03-28T15:38:52.449Z,1.00
2023-03-28T15:41:28.974Z,1.10
2023-03-28T15:44:27.646Z,0.93
2023-03-28T15:47:12.195Z,1.10
2023-03-28T15:49:40.642Z,1.30
2023-03-28T15:52:20.300Z,1.02
2023-03-28T15:54:59.223Z,1.20
2023-03-28T15:57:30.345Z,1.17
2023-03-28T16:00:00.207Z,0.98
2023-03-28T16:02:28.280Z,1.27
2023-03-28T16:05:13.666Z,0.90
2023-03-28T16:07:44.287Z,1.40
2023-03-28T16:10:18.784Z,1.70
2023-03-28T16:13:14.558Z,1.20
2023-03-28T16:15:53.618Z,0.98
2023-03-28T16:18:37.433Z,3.25
2023-03-28T16:21:08.473Z,1.90
2023-03-28T16:23:36.180Z,2.05
2023-03-28T16:26:05.244Z,1.33
2023-03-28T16:28:33.115Z,1.42
2023-03-28T16:31:24.867Z,1.50
2023-03-28T16:33:52.668Z,1.40
2023-03-28T16:36:20.512Z,1.48
2023-03-28T16:38:50.694Z,1.20
2023-03-28T16:41:18.763Z,2.42
2023-03-28T16:43:47.295Z,1.90
2023-03-28T16:46:15.874Z,1.50
2023-03-28T16:48:45.274Z,2.50
2023-03-28T16:51:13.576Z,3.78
2023-03-28T16:53:41.725Z,2.75
2023-03-28T16:56:15.022Z,1.98
2023-03-28T16:58:43.210Z,1.38
2023-03-28T17:01:19.282Z,1.58
2023-03-28T17:03:48.613Z,3.35
2023-03-28T17:06:17.009Z,3.47
2023-03-28T17:08:44.988Z,3.13
2023-03-28T17:11:14.184Z,2.65
2023-03-28T17:13:43.081Z,4.22
2023-03-28T17:16:11.364Z,2.55
2023-03-28T17:18:39.244Z,1.92
2023-03-28T17:21:11.626Z,2.10
2023-03-28T17:23:45.481Z,2.05
2023-03-28T17:28:44.169Z,2.65
2023-03-28T17:31:19.035Z,2.40
2023-03-28T17:33:48.725Z,2.53
2023-03-28T17:36:26.481Z,2.10
2023-03-28T17:38:57.557Z,2.13
2023-03-28T17:41:27.662Z,1.80
2023-03-28T17:43:57.690Z,1.67
2023-03-28T17:46:28.357Z,1.60
2023-03-28T17:48:58.266Z,2.00
2023-03-28T17:51:26.084Z,2.08
2023-03-28T17:53:55.728Z,2.28
2023-03-28T17:56:24.490Z,2.22
2023-03-28T17:58:52.719Z,2.38
2023-03-28T18:01:20.738Z,2.20
2023-03-28T18:03:53.574Z,2.00
2023-03-28T18:06:41.354Z,2.50
2023-03-28T18:09:09.504Z,2.40
2023-03-28T18:11:39.187Z,2.00
2023-03-28T18:14:08.550Z,1.98
2023-03-28T18:16:38.589Z,1.65
2023-03-28T18:19:06.868Z,1.88
2023-03-28T18:21:34.672Z,1.58
2023-03-28T18:24:02.543Z,1.20
2023-03-28T18:26:31.428Z,1.10
2023-03-28T18:29:00.272Z,1.20
2023-03-28T18:31:28.922Z,1.30
2023-03-28T18:33:57.872Z,1.13
2023-03-28T18:36:26.102Z,1.08
2023-03-28T18:38:55.858Z,0.90
2023-03-28T18:41:24.637Z,0.85
2023-03-28T18:43:53.169Z,1.25
2023-03-28T18:46:21.087Z,1.00
2023-03-28T18:48:49.029Z,0.90
2023-03-28T18:51:18.336Z,0.68
2023-03-28T18:53:46.286Z,0.80
2023-03-28T18:56:14.351Z,1.00
2023-03-28T18:58:42.274Z,1.00
2023-03-28T19:01:11.945Z,0.90
2023-03-28T19:03:41.642Z,0.80
2023-03-28T19:06:14.231Z,1.00
2023-03-28T19:08:44.974Z,0.80
2023-03-28T19:11:16.670Z,0.80
2023-03-28T19:13:44.507Z,1.10
2023-03-28T19:16:15.523Z,1.20
2023-03-28T19:18:46.881Z,1.10
2023-03-28T19:21:16.757Z,1.10
2023-03-28T19:23:46.958Z,1.33
2023-03-28T19:26:15.648Z,1.70
2023-03-28T19:28:43.658Z,2.50
2023-03-28T19:31:15.052Z,2.25
2023-03-28T19:36:11.771Z,2.30
2023-03-28T19:38:41.796Z,1.55
2023-03-28T19:41:22.081Z,1.65
2023-03-28T19:43:51.246Z,1.77
2023-03-28T19:46:32.471Z,1.50
2023-03-28T19:49:05.852Z,1.70
2023-03-28T19:51:36.482Z,1.70
2023-03-28T19:54:04.725Z,1.50
2023-03-28T19:56:32.664Z,1.70
2023-03-28T19:59:00.523Z,1.73
2023-03-28T20:01:28.375Z,1.40
2023-03-28T20:03:56.278Z,1.25
2023-03-28T20:06:24.378Z,2.40
2023-03-28T20:08:52.467Z,1.80
2023-03-28T20:11:20.704Z,1.63
2023-03-28T20:13:48.528Z,1.73
2023-03-28T20:16:16.625Z,1.77
2023-03-28T20:18:48.332Z,1.55
2023-03-28T20:21:16.196Z,1.45
2023-03-28T20:23:43.950Z,1.85
2023-03-28T20:26:22.085Z,2.05
2023-03-28T20:28:56.798Z,2.22
2023-03-28T20:31:25.317Z,2.42
2023-03-28T20:33:54.309Z,2.78
2023-03-28T20:36:23.150Z,3.05
2023-03-28T20:38:51.473Z,3.05
2023-03-28T20:41:19.548Z,2.60
2023-03-28T20:43:47.784Z,2.55
2023-03-28T20:46:21.216Z,3.00
2023-03-28T20:48:53.126Z,3.00
2023-03-28T20:51:22.809Z,2.80
2023-03-28T20:53:57.093Z,3.20
2023-03-28T20:56:27.865Z,3.08
2023-03-28T20:59:00.678Z,2.90
2023-03-28T21:01:30.536Z,2.95
2023-03-28T21:04:02.690Z,2.58
2023-03-28T21:06:38.105Z,2.72
2023-03-28T21:09:09.787Z,3.03
2023-03-28T21:11:39.565Z,2.85
2023-03-28T21:14:10.493Z,2.80
2023-03-28T21:16:38.591Z,3.05
2023-03-28T21:19:06.889Z,2.70
2023-03-28T21:21:35.196Z,3.13
2023-03-28T21:24:05.247Z,3.28
2023-03-28T21:26:33.051Z,3.13
2023-03-28T21:29:00.771Z,2.90
2023-03-28T21:31:29.671Z,2.42
2023-03-28T21:33:59.165Z,2.60
2023-03-28T21:36:28.018Z,2.60
2023-03-28T21:38:56.903Z,2.92
2023-03-28T21:41:27.044Z,3.05
2023-03-28T21:43:54.974Z,2.70
2023-03-28T21:46:23.344Z,2.88
2023-03-28T21:48:51.253Z,2.95
2023-03-28T21:51:19.282Z,2.58
2023-03-28T21:53:47.115Z,2.50
2023-03-28T21:56:16.658Z,2.30
2023-03-28T21:58:44.854Z,3.75
2023-03-28T22:01:15.239Z,3.55
2023-03-28T22:03:45.549Z,3.10
2023-03-28T22:06:16.452Z,2.92
2023-03-28T22:08:46.010Z,3.05
2023-03-28T22:11:21.345Z,2.90
2023-03-28T22:13:49.335Z,2.30
2023-03-28T22:16:17.129Z,2.70
2023-03-28T22:18:50.093Z,2.25
2023-03-28T22:21:18.335Z,2.20
2023-03-28T22:23:47.748Z,2.40
2023-03-28T22:26:16.383Z,2.65
2023-03-28T22:28:44.580Z,2.35
2023-03-28T22:31:13.367Z,2.22
2023-03-28T22:33:41.427Z,2.00
2023-03-28T22:36:10.709Z,2.30
2023-03-28T22:38:38.593Z,2.00
2023-03-28T22:41:07.649Z,2.35
2023-03-28T22:43:36.257Z,2.33
2023-03-28T22:46:05.629Z,2.15
2023-03-28T22:48:33.573Z,1.98
2023-03-28T22:51:01.961Z,1.85
2023-03-28T22:53:30.486Z,1.85
2023-03-28T22:55:58.606Z,1.80
2023-03-28T22:58:27.248Z,2.08
2023-03-28T23:00:55.024Z,1.80
2023-03-28T23:03:22.925Z,1.98
2023-03-28T23:05:51.643Z,2.08
2023-03-28T23:08:20.330Z,1.60
2023-03-28T23:10:48.435Z,2.00
2023-03-28T23:13:16.652Z,2.00
2023-03-28T23:15:44.974Z,1.63
2023-03-28T23:18:14.502Z,2.00
2023-03-28T23:20:42.907Z,1.70
2023-03-28T23:23:12.639Z,1.95
2023-03-28T23:25:40.564Z,1.55
2023-03-28T23:28:08.621Z,1.83
2023-03-28T23:30:39.014Z,1.70
2023-03-28T23:33:07.247Z,1.40
2023-03-28T23:35:35.394Z,1.67
2023-03-28T23:38:03.207Z,1.55
2023-03-28T23:40:31.077Z,1.60
2023-03-28T23:42:58.967Z,1.73
2023-03-28T23:45:26.906Z,1.70
2023-03-28T23:47:54.799Z,1.70
2023-03-28T23:50:22.817Z,1.90
2023-03-28T23:52:50.563Z,1.73
2023-03-28T23:55:18.409Z,1.77
2023-03-28T23:57:47.164Z,1.73
